sensor_id;sensor_type;location;lat;lon;timestamp;temperature;humidity
14749;DHT22;7466;53.574;9.976;2023-07-29T00:02:14;17.60;99.90
14749;DHT22;7466;53.574;9.976;2023-07-29T00:04:41;17.60;99.90
14749;DHT22;7466;53.574;9.976;2023-07-29T00:07:09;17.50;99.90
14749;DHT22;7466;53.574;9.976;2023-07-29T00:09:35;17.50;99.90
14749;DHT22;7466;53.574;9.976;2023-07-29T00:12:04;17.40;99.90
14749;DHT22;7466;53.574;9.976;2023-07-29T00:14:31;17.40;99.90
14749;DHT22;7466;53.574;9.976;2023-07-29T00:16:57;17.40;99.90
14749;DHT22;7466;53.574;9.976;2023-07-29T00:19:24;17.30;99.90
14749;DHT22;7466;53.574;9.976;2023-07-29T00:21:51;17.30;99.90
14749;DHT22;7466;53.574;9.976;2023-07-29T00:24:19;17.30;99.90
14749;DHT22;7466;53.574;9.976;2023-07-29T00:26:45;17.30;99.90
14749;DHT22;7466;53.574;9.976;2023-07-29T00:31:43;17.10;99.90
14749;DHT22;7466;53.574;9.976;2023-07-29T00:34:10;17.10;99.90
14749;DHT22;7466;53.574;9.976;2023-07-29T00:36:36;17.10;99.90
14749;DHT22;7466;53.574;9.976;2023-07-29T00:39:03;17.10;99.90
14749;DHT22;7466;53.574;9.976;2023-07-29T00:41:31;17.10;99.90
14749;DHT22;7466;53.574;9.976;2023-07-29T00:43:58;17.00;99.90
14749;DHT22;7466;53.574;9.976;2023-07-29T00:46:24;17.00;99.90
14749;DHT22;7466;53.574;9.976;2023-07-29T00:48:52;17.00;99.90
14749;DHT22;7466;53.574;9.976;2023-07-29T00:51:19;17.00;99.90
14749;DHT22;7466;53.574;9.976;2023-07-29T00:53:46;17.00;99.90
14749;DHT22;7466;53.574;9.976;2023-07-29T00:56:13;17.00;99.90
14749;DHT22;7466;53.574;9.976;2023-07-29T00:58:41;17.00;99.90
14749;DHT22;7466;53.574;9.976;2023-07-29T01:01:09;17.10;99.90
14749;DHT22;7466;53.574;9.976;2023-07-29T01:03:35;17.20;99.90
14749;DHT22;7466;53.574;9.976;2023-07-29T01:06:12;17.10;99.90
14749;DHT22;7466;53.574;9.976;2023-07-29T01:08:46;17.20;99.90
14749;DHT22;7466;53.574;9.976;2023-07-29T01:11:25;17.20;99.90
14749;DHT22;7466;53.574;9.976;2023-07-29T01:14:01;17.40;99.90
14749;DHT22;7466;53.574;9.976;2023-07-29T01:16:34;17.40;99.90
14749;DHT22;7466;53.574;9.976;2023-07-29T01:19:05;17.40;99.90
14749;DHT22;7466;53.574;9.976;2023-07-29T01:21:35;17.40;99.90
14749;DHT22;7466;53.574;9.976;2023-07-29T01:24:04;17.50;99.90
14749;DHT22;7466;53.574;9.976;2023-07-29T01:26:30;17.50;99.90
14749;DHT22;7466;53.574;9.976;2023-07-29T01:28:57;17.40;99.90
14749;DHT22;7466;53.574;9.976;2023-07-29T01:31:30;17.50;99.90
14749;DHT22;7466;53.574;9.976;2023-07-29T01:33:59;17.50;99.90
14749;DHT22;7466;53.574;9.976;2023-07-29T01:36:32;17.60;99.90
14749;DHT22;7466;53.574;9.976;2023-07-29T01:39:00;17.50;99.90
14749;DHT22;7466;53.574;9.976;2023-07-29T01:41:29;17.60;99.90
14749;DHT22;7466;53.574;9.976;2023-07-29T01:43:56;17.60;99.90
14749;DHT22;7466;53.574;9.976;2023-07-29T01:46:23;17.60;99.90
14749;DHT22;7466;53.574;9.976;2023-07-29T01:48:50;17.70;99.90
14749;DHT22;7466;53.574;9.976;2023-07-29T01:51:17;17.70;99.90
14749;DHT22;7466;53.574;9.976;2023-07-29T01:53:43;17.80;99.90
14749;DHT22;7466;53.574;9.976;2023-07-29T01:56:10;17.90;99.90
14749;DHT22;7466;53.574;9.976;2023-07-29T01:58:38;18.00;99.90
14749;DHT22;7466;53.574;9.976;2023-07-29T02:01:05;18.00;99.90
14749;DHT22;7466;53.574;9.976;2023-07-29T02:03:31;18.10;99.90
14749;DHT22;7466;53.574;9.976;2023-07-29T02:05:58;18.10;99.90
14749;DHT22;7466;53.574;9.976;2023-07-29T02:08:25;18.10;99.90
14749;DHT22;7466;53.574;9.976;2023-07-29T02:10:51;18.10;99.90
14749;DHT22;7466;53.574;9.976;2023-07-29T02:13:18;18.10;99.90
14749;DHT22;7466;53.574;9.976;2023-07-29T02:15:46;18.10;99.90
14749;DHT22;7466;53.574;9.976;2023-07-29T02:18:13;18.20;99.90
14749;DHT22;7466;53.574;9.976;2023-07-29T02:20:40;18.20;99.90
14749;DHT22;7466;53.574;9.976;2023-07-29T02:23:11;18.10;99.90
14749;DHT22;7466;53.574;9.976;2023-07-29T02:25:38;18.10;99.90
14749;DHT22;7466;53.574;9.976;2023-07-29T02:28:04;18.10;99.90
14749;DHT22;7466;53.574;9.976;2023-07-29T02:30:31;18.20;99.90
14749;DHT22;7466;53.574;9.976;2023-07-29T02:32:59;18.10;99.90
14749;DHT22;7466;53.574;9.976;2023-07-29T02:35:27;18.10;99.90
14749;DHT22;7466;53.574;9.976;2023-07-29T02:37:53;18.10;99.90
14749;DHT22;7466;53.574;9.976;2023-07-29T02:40:20;18.10;99.90
14749;DHT22;7466;53.574;9.976;2023-07-29T02:42:48;18.10;99.90
14749;DHT22;7466;53.574;9.976;2023-07-29T02:45:14;18.10;99.90
14749;DHT22;7466;53.574;9.976;2023-07-29T02:47:41;18.10;99.90
14749;DHT22;7466;53.574;9.976;2023-07-29T02:50:10;18.00;99.90
14749;DHT22;7466;53.574;9.976;2023-07-29T02:52:36;18.00;99.90
14749;DHT22;7466;53.574;9.976;2023-07-29T02:55:04;18.00;99.90
14749;DHT22;7466;53.574;9.976;2023-07-29T02:57:30;18.00;99.90
14749;DHT22;7466;53.574;9.976;2023-07-29T02:59:57;18.00;99.90
14749;DHT22;7466;53.574;9.976;2023-07-29T03:02:24;18.00;99.90
14749;DHT22;7466;53.574;9.976;2023-07-29T03:04:51;18.00;99.90
14749;DHT22;7466;53.574;9.976;2023-07-29T03:07:19;18.00;99.90
14749;DHT22;7466;53.574;9.976;2023-07-29T03:09:46;18.00;99.90
14749;DHT22;7466;53.574;9.976;2023-07-29T03:12:12;18.00;99.90
14749;DHT22;7466;53.574;9.976;2023-07-29T03:14:39;17.90;99.90
14749;DHT22;7466;53.574;9.976;2023-07-29T03:17:06;17.80;99.90
14749;DHT22;7466;53.574;9.976;2023-07-29T03:19:33;17.90;99.90
14749;DHT22;7466;53.574;9.976;2023-07-29T03:22:00;17.80;99.90
14749;DHT22;7466;53.574;9.976;2023-07-29T03:24:28;17.80;99.90
14749;DHT22;7466;53.574;9.976;2023-07-29T03:26:55;17.80;99.90
14749;DHT22;7466;53.574;9.976;2023-07-29T03:29:22;17.80;99.90
14749;DHT22;7466;53.574;9.976;2023-07-29T03:31:48;17.70;99.90
14749;DHT22;7466;53.574;9.976;2023-07-29T03:34:15;17.70;99.90
14749;DHT22;7466;53.574;9.976;2023-07-29T03:36:42;17.70;99.90
14749;DHT22;7466;53.574;9.976;2023-07-29T03:39:08;17.70;99.90
14749;DHT22;7466;53.574;9.976;2023-07-29T03:41:36;17.70;99.90
14749;DHT22;7466;53.574;9.976;2023-07-29T03:44:04;17.70;99.90
14749;DHT22;7466;53.574;9.976;2023-07-29T03:46:31;17.80;99.90
14749;DHT22;7466;53.574;9.976;2023-07-29T03:48:57;17.70;99.90
14749;DHT22;7466;53.574;9.976;2023-07-29T03:51:24;17.80;99.90
14749;DHT22;7466;53.574;9.976;2023-07-29T03:53:51;17.80;99.90
14749;DHT22;7466;53.574;9.976;2023-07-29T03:56:17;17.80;99.90
14749;DHT22;7466;53.574;9.976;2023-07-29T03:58:46;17.80;99.90
14749;DHT22;7466;53.574;9.976;2023-07-29T04:01:13;17.80;99.90
14749;DHT22;7466;53.574;9.976;2023-07-29T04:03:40;17.80;99.90
14749;DHT22;7466;53.574;9.976;2023-07-29T04:06:07;17.80;99.90
14749;DHT22;7466;53.574;9.976;2023-07-29T04:08:33;17.90;99.90
14749;DHT22;7466;53.574;9.976;2023-07-29T04:11:00;17.90;99.90
14749;DHT22;7466;53.574;9.976;2023-07-29T04:13:27;17.90;99.90
14749;DHT22;7466;53.574;9.976;2023-07-29T04:15:55;17.90;99.90
14749;DHT22;7466;53.574;9.976;2023-07-29T04:18:22;18.00;99.90
14749;DHT22;7466;53.574;9.976;2023-07-29T04:20:48;18.00;99.90
14749;DHT22;7466;53.574;9.976;2023-07-29T04:23:15;18.00;99.90
14749;DHT22;7466;53.574;9.976;2023-07-29T04:25:42;18.00;99.90
14749;DHT22;7466;53.574;9.976;2023-07-29T04:28:08;18.00;99.90
14749;DHT22;7466;53.574;9.976;2023-07-29T04:30:35;18.00;99.90
14749;DHT22;7466;53.574;9.976;2023-07-29T04:33:03;18.00;99.90
14749;DHT22;7466;53.574;9.976;2023-07-29T04:35:30;18.00;99.90
14749;DHT22;7466;53.574;9.976;2023-07-29T04:37:57;18.00;99.90
14749;DHT22;7466;53.574;9.976;2023-07-29T04:40:23;17.90;99.90
14749;DHT22;7466;53.574;9.976;2023-07-29T04:42:51;17.90;99.90
14749;DHT22;7466;53.574;9.976;2023-07-29T04:45:18;18.00;99.90
14749;DHT22;7466;53.574;9.976;2023-07-29T04:47:44;18.00;99.90
14749;DHT22;7466;53.574;9.976;2023-07-29T04:50:12;18.00;99.90
14749;DHT22;7466;53.574;9.976;2023-07-29T04:52:39;18.00;99.90
14749;DHT22;7466;53.574;9.976;2023-07-29T04:55:06;18.00;99.90
14749;DHT22;7466;53.574;9.976;2023-07-29T04:57:33;18.00;99.90
14749;DHT22;7466;53.574;9.976;2023-07-29T05:00:00;17.90;99.90
14749;DHT22;7466;53.574;9.976;2023-07-29T05:02:28;18.00;99.90
14749;DHT22;7466;53.574;9.976;2023-07-29T05:04:54;17.90;99.90
14749;DHT22;7466;53.574;9.976;2023-07-29T05:07:22;18.00;99.90
14749;DHT22;7466;53.574;9.976;2023-07-29T05:09:49;17.90;99.90
14749;DHT22;7466;53.574;9.976;2023-07-29T05:12:16;17.90;99.90
14749;DHT22;7466;53.574;9.976;2023-07-29T05:14:43;17.90;99.90
14749;DHT22;7466;53.574;9.976;2023-07-29T05:17:09;17.90;99.90
14749;DHT22;7466;53.574;9.976;2023-07-29T05:19:36;18.00;99.90
14749;DHT22;7466;53.574;9.976;2023-07-29T05:22:03;18.10;99.90
14749;DHT22;7466;53.574;9.976;2023-07-29T05:24:31;18.10;99.90
14749;DHT22;7466;53.574;9.976;2023-07-29T05:26:58;18.10;99.90
14749;DHT22;7466;53.574;9.976;2023-07-29T05:29:25;18.10;99.90
14749;DHT22;7466;53.574;9.976;2023-07-29T05:31:51;18.10;99.90
14749;DHT22;7466;53.574;9.976;2023-07-29T05:34:18;18.00;99.90
14749;DHT22;7466;53.574;9.976;2023-07-29T05:36:45;18.00;99.90
14749;DHT22;7466;53.574;9.976;2023-07-29T05:39:11;18.20;99.90
14749;DHT22;7466;53.574;9.976;2023-07-29T05:41:39;18.30;99.90
14749;DHT22;7466;53.574;9.976;2023-07-29T05:44:06;18.30;99.90
14749;DHT22;7466;53.574;9.976;2023-07-29T05:46:33;18.30;99.90
14749;DHT22;7466;53.574;9.976;2023-07-29T05:49:00;18.30;99.90
14749;DHT22;7466;53.574;9.976;2023-07-29T05:51:27;18.40;99.90
14749;DHT22;7466;53.574;9.976;2023-07-29T05:53:54;18.50;99.90
14749;DHT22;7466;53.574;9.976;2023-07-29T05:56:21;18.50;99.90
14749;DHT22;7466;53.574;9.976;2023-07-29T05:58:49;18.50;99.90
14749;DHT22;7466;53.574;9.976;2023-07-29T06:01:16;18.40;99.90
14749;DHT22;7466;53.574;9.976;2023-07-29T06:03:42;18.40;99.90
14749;DHT22;7466;53.574;9.976;2023-07-29T06:06:09;18.40;99.90
14749;DHT22;7466;53.574;9.976;2023-07-29T06:08:36;18.50;99.90
14749;DHT22;7466;53.574;9.976;2023-07-29T06:11:02;18.50;99.90
14749;DHT22;7466;53.574;9.976;2023-07-29T06:13:31;18.60;99.90
14749;DHT22;7466;53.574;9.976;2023-07-29T06:15:59;18.70;99.90
14749;DHT22;7466;53.574;9.976;2023-07-29T06:18:26;18.80;99.90
14749;DHT22;7466;53.574;9.976;2023-07-29T06:20:53;18.90;99.90
14749;DHT22;7466;53.574;9.976;2023-07-29T06:23:19;18.90;99.90
14749;DHT22;7466;53.574;9.976;2023-07-29T06:25:46;19.00;99.90
14749;DHT22;7466;53.574;9.976;2023-07-29T06:28:13;19.00;99.90
14749;DHT22;7466;53.574;9.976;2023-07-29T06:30:39;18.90;99.90
14749;DHT22;7466;53.574;9.976;2023-07-29T06:33:07;18.90;99.90
14749;DHT22;7466;53.574;9.976;2023-07-29T06:35:34;19.00;99.90
14749;DHT22;7466;53.574;9.976;2023-07-29T06:38:01;19.10;99.90
14749;DHT22;7466;53.574;9.976;2023-07-29T06:40:28;19.30;99.90
14749;DHT22;7466;53.574;9.976;2023-07-29T06:42:54;19.30;99.90
14749;DHT22;7466;53.574;9.976;2023-07-29T06:45:21;19.30;99.90
14749;DHT22;7466;53.574;9.976;2023-07-29T06:47:48;19.40;99.90
14749;DHT22;7466;53.574;9.976;2023-07-29T06:50:16;19.50;99.90
14749;DHT22;7466;53.574;9.976;2023-07-29T06:52:42;19.60;99.90
14749;DHT22;7466;53.574;9.976;2023-07-29T06:55:09;19.60;99.90
14749;DHT22;7466;53.574;9.976;2023-07-29T06:57:36;19.50;99.90
14749;DHT22;7466;53.574;9.976;2023-07-29T07:00:03;19.50;99.90
14749;DHT22;7466;53.574;9.976;2023-07-29T07:02:30;19.50;99.90
14749;DHT22;7466;53.574;9.976;2023-07-29T07:04:57;19.40;99.90
14749;DHT22;7466;53.574;9.976;2023-07-29T07:07:25;19.30;99.90
14749;DHT22;7466;53.574;9.976;2023-07-29T07:09:51;19.30;99.90
14749;DHT22;7466;53.574;9.976;2023-07-29T07:12:18;19.30;99.90
14749;DHT22;7466;53.574;9.976;2023-07-29T07:14:45;19.30;99.90
14749;DHT22;7466;53.574;9.976;2023-07-29T07:17:11;19.30;99.90
14749;DHT22;7466;53.574;9.976;2023-07-29T07:19:38;19.30;99.90
14749;DHT22;7466;53.574;9.976;2023-07-29T07:22:05;19.30;99.90
14749;DHT22;7466;53.574;9.976;2023-07-29T07:24:33;19.30;99.90
14749;DHT22;7466;53.574;9.976;2023-07-29T07:26:59;19.30;99.90
14749;DHT22;7466;53.574;9.976;2023-07-29T07:29:26;19.20;99.90
14749;DHT22;7466;53.574;9.976;2023-07-29T07:31:54;19.20;99.90
14749;DHT22;7466;53.574;9.976;2023-07-29T07:34:21;19.20;99.90
14749;DHT22;7466;53.574;9.976;2023-07-29T07:36:48;19.20;99.90
14749;DHT22;7466;53.574;9.976;2023-07-29T07:39:15;19.30;99.90
14749;DHT22;7466;53.574;9.976;2023-07-29T07:41:43;19.30;99.90
14749;DHT22;7466;53.574;9.976;2023-07-29T07:44:10;19.30;99.90
14749;DHT22;7466;53.574;9.976;2023-07-29T07:46:40;19.30;99.90
14749;DHT22;7466;53.574;9.976;2023-07-29T07:49:07;19.30;99.90
14749;DHT22;7466;53.574;9.976;2023-07-29T07:51:34;19.40;99.90
14749;DHT22;7466;53.574;9.976;2023-07-29T07:54:00;19.30;99.90
14749;DHT22;7466;53.574;9.976;2023-07-29T07:56:27;19.40;99.90
14749;DHT22;7466;53.574;9.976;2023-07-29T07:58:55;19.40;99.90
14749;DHT22;7466;53.574;9.976;2023-07-29T08:01:22;19.40;99.90
14749;DHT22;7466;53.574;9.976;2023-07-29T08:03:48;19.30;99.90
14749;DHT22;7466;53.574;9.976;2023-07-29T08:06:15;19.30;99.90
14749;DHT22;7466;53.574;9.976;2023-07-29T08:08:42;19.20;99.90
14749;DHT22;7466;53.574;9.976;2023-07-29T08:11:08;19.30;99.90
14749;DHT22;7466;53.574;9.976;2023-07-29T08:13:35;19.30;99.90
14749;DHT22;7466;53.574;9.976;2023-07-29T08:16:03;19.30;99.90
14749;DHT22;7466;53.574;9.976;2023-07-29T08:18:30;19.30;99.90
14749;DHT22;7466;53.574;9.976;2023-07-29T08:20:58;19.40;99.90
14749;DHT22;7466;53.574;9.976;2023-07-29T08:23:29;19.40;99.90
14749;DHT22;7466;53.574;9.976;2023-07-29T08:25:57;19.40;99.90
14749;DHT22;7466;53.574;9.976;2023-07-29T08:28:27;19.40;99.90
14749;DHT22;7466;53.574;9.976;2023-07-29T08:30:54;19.60;99.90
14749;DHT22;7466;53.574;9.976;2023-07-29T08:33:22;19.60;99.90
14749;DHT22;7466;53.574;9.976;2023-07-29T08:35:49;19.50;99.90
14749;DHT22;7466;53.574;9.976;2023-07-29T08:38:15;19.50;99.90
14749;DHT22;7466;53.574;9.976;2023-07-29T08:40:45;19.60;99.90
14749;DHT22;7466;53.574;9.976;2023-07-29T08:43:14;19.60;99.90
14749;DHT22;7466;53.574;9.976;2023-07-29T08:45:43;19.80;99.90
14749;DHT22;7466;53.574;9.976;2023-07-29T08:48:11;19.70;99.90
14749;DHT22;7466;53.574;9.976;2023-07-29T08:50:40;19.70;99.90
14749;DHT22;7466;53.574;9.976;2023-07-29T08:53:08;19.70;99.90
14749;DHT22;7466;53.574;9.976;2023-07-29T08:55:34;19.70;99.90
14749;DHT22;7466;53.574;9.976;2023-07-29T08:58:02;19.60;99.90
14749;DHT22;7466;53.574;9.976;2023-07-29T09:00:29;19.60;99.90
14749;DHT22;7466;53.574;9.976;2023-07-29T09:02:56;19.60;99.90
14749;DHT22;7466;53.574;9.976;2023-07-29T09:05:28;19.60;99.90
14749;DHT22;7466;53.574;9.976;2023-07-29T09:07:56;19.80;99.90
14749;DHT22;7466;53.574;9.976;2023-07-29T09:10:25;20.00;99.90
14749;DHT22;7466;53.574;9.976;2023-07-29T09:12:53;20.10;99.90
14749;DHT22;7466;53.574;9.976;2023-07-29T09:15:29;20.10;99.90
14749;DHT22;7466;53.574;9.976;2023-07-29T09:17:57;20.20;99.90
14749;DHT22;7466;53.574;9.976;2023-07-29T09:20:24;20.40;99.90
14749;DHT22;7466;53.574;9.976;2023-07-29T09:22:52;20.30;99.90
14749;DHT22;7466;53.574;9.976;2023-07-29T09:25:24;20.40;99.90
14749;DHT22;7466;53.574;9.976;2023-07-29T09:27:51;20.50;99.90
14749;DHT22;7466;53.574;9.976;2023-07-29T09:30:18;20.60;99.90
14749;DHT22;7466;53.574;9.976;2023-07-29T09:32:45;20.70;99.90
14749;DHT22;7466;53.574;9.976;2023-07-29T09:35:12;20.60;99.90
14749;DHT22;7466;53.574;9.976;2023-07-29T09:37:39;20.70;99.90
14749;DHT22;7466;53.574;9.976;2023-07-29T09:40:07;20.70;99.90
14749;DHT22;7466;53.574;9.976;2023-07-29T09:42:47;20.80;99.90
14749;DHT22;7466;53.574;9.976;2023-07-29T09:45:20;21.10;99.90
14749;DHT22;7466;53.574;9.976;2023-07-29T09:47:46;21.40;99.90
14749;DHT22;7466;53.574;9.976;2023-07-29T09:50:13;21.70;99.90
14749;DHT22;7466;53.574;9.976;2023-07-29T09:52:41;22.00;99.90
14749;DHT22;7466;53.574;9.976;2023-07-29T09:55:10;22.30;99.90
14749;DHT22;7466;53.574;9.976;2023-07-29T09:57:36;22.50;99.90
14749;DHT22;7466;53.574;9.976;2023-07-29T10:00:07;22.40;99.90
14749;DHT22;7466;53.574;9.976;2023-07-29T10:02:37;22.70;70.00
14749;DHT22;7466;53.574;9.976;2023-07-29T10:05:06;22.70;33.10
14749;DHT22;7466;53.574;9.976;2023-07-29T10:07:33;22.90;26.60
14749;DHT22;7466;53.574;9.976;2023-07-29T10:10:02;22.90;43.30
14749;DHT22;7466;53.574;9.976;2023-07-29T10:12:30;23.20;34.60
14749;DHT22;7466;53.574;9.976;2023-07-29T10:14:59;23.40;5.00
14749;DHT22;7466;53.574;9.976;2023-07-29T10:17:28;23.50;1.00
14749;DHT22;7466;53.574;9.976;2023-07-29T10:19:56;23.50;1.00
14749;DHT22;7466;53.574;9.976;2023-07-29T10:22:24;23.60;1.00
14749;DHT22;7466;53.574;9.976;2023-07-29T10:24:54;23.50;1.00
14749;DHT22;7466;53.574;9.976;2023-07-29T10:27:24;23.30;1.00
14749;DHT22;7466;53.574;9.976;2023-07-29T10:29:53;23.20;1.00
14749;DHT22;7466;53.574;9.976;2023-07-29T10:32:25;23.00;1.00
14749;DHT22;7466;53.574;9.976;2023-07-29T10:34:53;22.80;1.00
14749;DHT22;7466;53.574;9.976;2023-07-29T10:37:20;22.70;1.00
14749;DHT22;7466;53.574;9.976;2023-07-29T10:39:52;22.50;1.00
14749;DHT22;7466;53.574;9.976;2023-07-29T10:42:20;22.20;9.70
14749;DHT22;7466;53.574;9.976;2023-07-29T10:44:47;22.30;22.80
14749;DHT22;7466;53.574;9.976;2023-07-29T10:47:16;22.10;19.20
14749;DHT22;7466;53.574;9.976;2023-07-29T10:49:44;22.10;24.50
14749;DHT22;7466;53.574;9.976;2023-07-29T10:52:14;22.30;4.20
14749;DHT22;7466;53.574;9.976;2023-07-29T10:54:42;22.40;22.10
14749;DHT22;7466;53.574;9.976;2023-07-29T10:57:13;22.50;23.40
14749;DHT22;7466;53.574;9.976;2023-07-29T10:59:40;22.50;8.90
14749;DHT22;7466;53.574;9.976;2023-07-29T11:02:15;22.30;1.00
14749;DHT22;7466;53.574;9.976;2023-07-29T11:04:49;22.30;1.00
14749;DHT22;7466;53.574;9.976;2023-07-29T11:07:21;22.20;1.00
14749;DHT22;7466;53.574;9.976;2023-07-29T11:09:54;22.10;4.50
14749;DHT22;7466;53.574;9.976;2023-07-29T11:12:41;22.10;12.20
14749;DHT22;7466;53.574;9.976;2023-07-29T11:15:14;22.00;23.40
14749;DHT22;7466;53.574;9.976;2023-07-29T11:17:42;21.90;22.90
14749;DHT22;7466;53.574;9.976;2023-07-29T11:20:10;21.90;24.30
14749;DHT22;7466;53.574;9.976;2023-07-29T11:22:38;21.90;16.00
14749;DHT22;7466;53.574;9.976;2023-07-29T11:25:07;21.80;11.70
14749;DHT22;7466;53.574;9.976;2023-07-29T11:27:34;21.80;1.00
14749;DHT22;7466;53.574;9.976;2023-07-29T11:30:02;21.70;1.00
14749;DHT22;7466;53.574;9.976;2023-07-29T11:32:30;21.80;1.00
14749;DHT22;7466;53.574;9.976;2023-07-29T11:35:00;21.80;1.00
14749;DHT22;7466;53.574;9.976;2023-07-29T11:37:27;22.00;1.00
14749;DHT22;7466;53.574;9.976;2023-07-29T11:39:55;22.40;1.00
14749;DHT22;7466;53.574;9.976;2023-07-29T11:42:22;22.80;1.00
14749;DHT22;7466;53.574;9.976;2023-07-29T11:44:48;23.00;1.00
14749;DHT22;7466;53.574;9.976;2023-07-29T11:47:15;23.50;1.00
14749;DHT22;7466;53.574;9.976;2023-07-29T11:49:42;23.90;1.00
14749;DHT22;7466;53.574;9.976;2023-07-29T11:52:10;24.00;1.00
14749;DHT22;7466;53.574;9.976;2023-07-29T11:54:37;24.30;1.00
14749;DHT22;7466;53.574;9.976;2023-07-29T11:57:07;24.20;1.00
14749;DHT22;7466;53.574;9.976;2023-07-29T11:59:35;24.00;1.00
14749;DHT22;7466;53.574;9.976;2023-07-29T12:02:06;23.60;1.00
14749;DHT22;7466;53.574;9.976;2023-07-29T12:04:35;23.50;1.00
14749;DHT22;7466;53.574;9.976;2023-07-29T12:07:03;23.70;1.00
14749;DHT22;7466;53.574;9.976;2023-07-29T12:09:30;23.80;1.00
14749;DHT22;7466;53.574;9.976;2023-07-29T12:11:57;24.20;1.00
14749;DHT22;7466;53.574;9.976;2023-07-29T12:14:27;24.80;1.00
14749;DHT22;7466;53.574;9.976;2023-07-29T12:16:54;24.60;1.00
14749;DHT22;7466;53.574;9.976;2023-07-29T12:19:21;24.40;1.00
14749;DHT22;7466;53.574;9.976;2023-07-29T12:21:48;24.20;1.00
14749;DHT22;7466;53.574;9.976;2023-07-29T12:24:15;24.60;1.00
14749;DHT22;7466;53.574;9.976;2023-07-29T12:26:42;24.80;99.90
14749;DHT22;7466;53.574;9.976;2023-07-29T12:29:12;25.00;99.90
14749;DHT22;7466;53.574;9.976;2023-07-29T12:31:41;25.40;99.90
14749;DHT22;7466;53.574;9.976;2023-07-29T12:34:07;25.80;97.90
14749;DHT22;7466;53.574;9.976;2023-07-29T12:36:42;26.20;1.00
14749;DHT22;7466;53.574;9.976;2023-07-29T12:39:16;26.60;99.90
14749;DHT22;7466;53.574;9.976;2023-07-29T12:41:43;27.20;1.00
14749;DHT22;7466;53.574;9.976;2023-07-29T12:44:10;27.50;1.00
14749;DHT22;7466;53.574;9.976;2023-07-29T12:46:37;27.70;99.90
14749;DHT22;7466;53.574;9.976;2023-07-29T12:49:05;27.20;99.90
14749;DHT22;7466;53.574;9.976;2023-07-29T12:51:32;27.00;1.00
14749;DHT22;7466;53.574;9.976;2023-07-29T12:54:00;27.10;99.90
14749;DHT22;7466;53.574;9.976;2023-07-29T12:56:27;27.90;99.90
14749;DHT22;7466;53.574;9.976;2023-07-29T12:58:53;27.50;99.90
14749;DHT22;7466;53.574;9.976;2023-07-29T13:01:20;27.40;99.90
14749;DHT22;7466;53.574;9.976;2023-07-29T13:03:47;27.70;1.00
14749;DHT22;7466;53.574;9.976;2023-07-29T13:06:16;27.40;1.00
14749;DHT22;7466;53.574;9.976;2023-07-29T13:08:43;27.90;1.00
14749;DHT22;7466;53.574;9.976;2023-07-29T13:11:10;27.10;1.00
14749;DHT22;7466;53.574;9.976;2023-07-29T13:13:37;27.00;99.90
14749;DHT22;7466;53.574;9.976;2023-07-29T13:16:04;26.80;99.90
14749;DHT22;7466;53.574;9.976;2023-07-29T13:18:31;26.40;1.00
14749;DHT22;7466;53.574;9.976;2023-07-29T13:20:58;25.60;99.90
14749;DHT22;7466;53.574;9.976;2023-07-29T13:23:27;25.00;1.00
14749;DHT22;7466;53.574;9.976;2023-07-29T13:25:55;24.90;63.40
14749;DHT22;7466;53.574;9.976;2023-07-29T13:28:21;25.40;96.60
14749;DHT22;7466;53.574;9.976;2023-07-29T13:30:48;25.50;1.00
14749;DHT22;7466;53.574;9.976;2023-07-29T13:33:15;26.10;1.00
14749;DHT22;7466;53.574;9.976;2023-07-29T13:35:42;26.20;1.00
14749;DHT22;7466;53.574;9.976;2023-07-29T13:38:09;25.70;1.00
14749;DHT22;7466;53.574;9.976;2023-07-29T13:40:37;25.60;1.00
14749;DHT22;7466;53.574;9.976;2023-07-29T13:43:04;26.00;1.00
14749;DHT22;7466;53.574;9.976;2023-07-29T13:45:31;25.40;1.00
14749;DHT22;7466;53.574;9.976;2023-07-29T13:47:58;26.10;4.80
14749;DHT22;7466;53.574;9.976;2023-07-29T13:50:24;26.70;1.00
14749;DHT22;7466;53.574;9.976;2023-07-29T13:52:51;27.70;1.00
14749;DHT22;7466;53.574;9.976;2023-07-29T13:55:18;27.90;99.90
14749;DHT22;7466;53.574;9.976;2023-07-29T13:57:46;28.80;1.00
14749;DHT22;7466;53.574;9.976;2023-07-29T14:00:13;29.00;99.90
14749;DHT22;7466;53.574;9.976;2023-07-29T14:02:41;29.10;1.00
14749;DHT22;7466;53.574;9.976;2023-07-29T14:05:08;30.00;81.50
14749;DHT22;7466;53.574;9.976;2023-07-29T14:07:35;29.10;1.00
14749;DHT22;7466;53.574;9.976;2023-07-29T14:10:01;28.60;96.90
14749;DHT22;7466;53.574;9.976;2023-07-29T14:12:28;29.00;1.00
14749;DHT22;7466;53.574;9.976;2023-07-29T14:14:56;29.00;99.90
14749;DHT22;7466;53.574;9.976;2023-07-29T14:17:23;28.40;1.00
14749;DHT22;7466;53.574;9.976;2023-07-29T14:19:49;29.20;1.00
14749;DHT22;7466;53.574;9.976;2023-07-29T14:22:16;27.40;1.00
14749;DHT22;7466;53.574;9.976;2023-07-29T14:24:43;27.60;99.90
14749;DHT22;7466;53.574;9.976;2023-07-29T14:27:09;28.90;99.90
14749;DHT22;7466;53.574;9.976;2023-07-29T14:29:36;29.60;1.00
14749;DHT22;7466;53.574;9.976;2023-07-29T14:32:05;29.60;99.90
14749;DHT22;7466;53.574;9.976;2023-07-29T14:34:31;28.80;99.90
14749;DHT22;7466;53.574;9.976;2023-07-29T14:36:58;28.80;75.70
14749;DHT22;7466;53.574;9.976;2023-07-29T14:39:25;29.80;1.00
14749;DHT22;7466;53.574;9.976;2023-07-29T14:41:51;29.60;23.90
14749;DHT22;7466;53.574;9.976;2023-07-29T14:44:18;30.10;1.00
14749;DHT22;7466;53.574;9.976;2023-07-29T14:46:45;31.50;1.00
14749;DHT22;7466;53.574;9.976;2023-07-29T14:49:13;32.30;1.00
14749;DHT22;7466;53.574;9.976;2023-07-29T14:51:40;32.40;90.20
14749;DHT22;7466;53.574;9.976;2023-07-29T14:54:06;32.70;1.00
14749;DHT22;7466;53.574;9.976;2023-07-29T14:56:33;32.80;99.90
14749;DHT22;7466;53.574;9.976;2023-07-29T14:59:00;31.40;99.90
14749;DHT22;7466;53.574;9.976;2023-07-29T15:01:26;33.50;99.90
14749;DHT22;7466;53.574;9.976;2023-07-29T15:03:53;34.80;1.00
14749;DHT22;7466;53.574;9.976;2023-07-29T15:06:21;34.80;1.00
14749;DHT22;7466;53.574;9.976;2023-07-29T15:08:48;33.20;1.00
14749;DHT22;7466;53.574;9.976;2023-07-29T15:11:15;34.60;99.90
14749;DHT22;7466;53.574;9.976;2023-07-29T15:13:41;32.50;1.00
14749;DHT22;7466;53.574;9.976;2023-07-29T15:16:08;32.50;97.50
14749;DHT22;7466;53.574;9.976;2023-07-29T15:18:35;33.10;1.00
14749;DHT22;7466;53.574;9.976;2023-07-29T15:21:01;32.00;99.90
14749;DHT22;7466;53.574;9.976;2023-07-29T15:23:29;31.70;1.00
14749;DHT22;7466;53.574;9.976;2023-07-29T15:25:56;32.30;99.90
14749;DHT22;7466;53.574;9.976;2023-07-29T15:28:23;31.20;1.00
14749;DHT22;7466;53.574;9.976;2023-07-29T15:30:52;30.00;1.00
14749;DHT22;7466;53.574;9.976;2023-07-29T15:33:19;29.20;1.00
14749;DHT22;7466;53.574;9.976;2023-07-29T15:35:45;28.50;1.00
14749;DHT22;7466;53.574;9.976;2023-07-29T15:38:14;28.20;99.90
14749;DHT22;7466;53.574;9.976;2023-07-29T15:40:42;28.10;99.90
14749;DHT22;7466;53.574;9.976;2023-07-29T15:43:09;27.50;1.00
14749;DHT22;7466;53.574;9.976;2023-07-29T15:45:35;27.50;1.00
14749;DHT22;7466;53.574;9.976;2023-07-29T15:48:02;27.20;26.00
14749;DHT22;7466;53.574;9.976;2023-07-29T15:50:29;26.80;1.00
14749;DHT22;7466;53.574;9.976;2023-07-29T15:52:56;26.40;1.00
14749;DHT22;7466;53.574;9.976;2023-07-29T15:55:22;25.80;1.00